Comby, Texas
Current Conditions -  °F | °C
As of 2:52 AM on Thursday 18 Dec 2014 (Local Time) from KHRL Reporting Station
Overcast Overcast  
Wind Chill: 72°   Ceiling: 5500
Heat Index: 72°   Visibility: 10mi
Dew Point: 68°   Wind: 9mph
Humidity: 87%   Direction: 160°SSE
Pressure: 30"   Gusts: NA
Location:  26.2542°N, 97.7326°W
Report Text: KHRL 180852Z 16008KT 10SM SCT043 OVC055 22/20 A3000 RMK AO2 SLP158 T02220200 58005
Loading
Personal Weather Stations






























Interactive Weather Map New forecast layout! Learn more

10-Day Weather Forecast

Advertisements
Track Severe Weather on mobile